Time;durP1;ratioP1;P1;durP2;ratioP2;P2;SDS_P1;SDS_P2;PMS_P1;PMS_P2;Temp;Humidity;BMP_temperature;BMP_pressure;BME280_temperature;BME280_humidity;BME280_pressure;Samples;Min_cycle;Max_cycle;Signal;HPM_P1;HPM_P2
2021/03/06 00:02:18;;;;;;;5.25;4.55;;;1.60;67.60;;;;;;5034325;28;20216;-82
2021/03/06 00:04:44;;;;;;;5.60;4.80;;;1.50;67.70;;;;;;5039585;28;20208;-82
2021/03/06 00:07:11;;;;;;;6.97;4.60;;;1.50;68.20;;;;;;5040148;28;20250;-82
2021/03/06 00:09:37;;;;;;;5.20;3.65;;;1.50;68.50;;;;;;5029660;28;20212;-82
2021/03/06 00:12:04;;;;;;;5.43;4.38;;;1.60;68.20;;;;;;5030808;28;20223;-82
2021/03/06 00:14:31;;;;;;;4.78;3.85;;;1.50;68.10;;;;;;5032122;28;20204;-82
2021/03/06 00:16:58;;;;;;;5.15;4.50;;;1.50;67.50;;;;;;5047866;28;20219;-82
2021/03/06 00:19:25;;;;;;;5.95;4.93;;;1.40;67.60;;;;;;5035747;28;20205;-82
2021/03/06 00:21:52;;;;;;;7.00;4.40;;;1.40;67.50;;;;;;5048898;28;20234;-82
2021/03/06 00:24:18;;;;;;;4.78;4.38;;;1.50;67.30;;;;;;5055733;28;20304;-82
2021/03/06 00:26:45;;;;;;;6.43;5.00;;;1.40;67.20;;;;;;5053074;28;20200;-82
2021/03/06 00:29:11;;;;;;;6.45;4.97;;;1.40;67.00;;;;;;5034720;28;20213;-82
2021/03/06 00:31:38;;;;;;;5.07;4.57;;;1.40;67.70;;;;;;5033144;28;20208;-81
2021/03/06 00:34:05;;;;;;;5.35;4.30;;;1.40;67.20;;;;;;5047869;28;20567;-82
2021/03/06 00:36:33;;;;;;;4.18;3.63;;;1.40;67.30;;;;;;5033056;28;20256;-82
2021/03/06 00:38:59;;;;;;;7.68;4.40;;;1.30;67.60;;;;;;5048806;28;20568;-81
2021/03/06 00:41:26;;;;;;;6.15;4.90;;;1.20;67.30;;;;;;5049193;28;20212;-82
2021/03/06 00:43:52;;;;;;;5.45;4.75;;;1.30;67.40;;;;;;5039829;28;20204;-82
2021/03/06 00:46:19;;;;;;;5.32;4.32;;;1.40;67.50;;;;;;5051459;28;20204;-82
2021/03/06 00:48:45;;;;;;;6.10;5.50;;;1.30;67.80;;;;;;5044474;28;20205;-82
2021/03/06 00:51:12;;;;;;;4.97;4.20;;;1.30;67.60;;;;;;5033902;28;20252;-82
2021/03/06 00:53:39;;;;;;;4.93;4.10;;;1.30;66.70;;;;;;5051872;28;20246;-82
2021/03/06 00:56:06;;;;;;;5.60;4.32;;;1.30;66.60;;;;;;5052439;28;20305;-82
2021/03/06 00:58:32;;;;;;;5.70;5.20;;;1.30;67.40;;;;;;5052239;28;20208;-82
2021/03/06 01:00:59;;;;;;;6.10;5.60;;;1.20;67.40;;;;;;5051438;28;20208;-82
2021/03/06 01:03:27;;;;;;;5.75;4.70;;;1.20;67.20;;;;;;5051166;28;20282;-81
2021/03/06 01:05:55;;;;;;;4.90;4.30;;;1.20;66.80;;;;;;5052645;28;20691;-82
2021/03/06 01:08:22;;;;;;;5.70;5.15;;;1.20;67.20;;;;;;5035444;28;20618;-81
2021/03/06 01:10:50;;;;;;;6.53;5.65;;;1.20;67.20;;;;;;5034453;28;20207;-82
2021/03/06 01:13:18;;;;;;;5.53;4.70;;;1.10;67.20;;;;;;5051790;28;20203;-81
2021/03/06 01:15:45;;;;;;;5.63;4.88;;;1.20;67.30;;;;;;5036720;28;20209;-81
2021/03/06 01:18:12;;;;;;;6.28;5.05;;;1.20;67.00;;;;;;5038908;28;20255;-82
2021/03/06 01:20:38;;;;;;;5.95;4.70;;;1.10;66.80;;;;;;5031902;28;20204;-82
2021/03/06 01:23:05;;;;;;;5.90;5.32;;;1.10;66.20;;;;;;5049765;28;20219;-81
2021/03/06 01:25:32;;;;;;;5.90;5.30;;;1.10;65.80;;;;;;5041751;28;20201;-81
2021/03/06 01:27:59;;;;;;;6.60;4.65;;;1.10;66.00;;;;;;5032062;28;20209;-82
2021/03/06 01:30:26;;;;;;;7.10;5.35;;;1.10;65.70;;;;;;5043967;28;20205;-82
2021/03/06 01:32:53;;;;;;;6.43;5.35;;;1.10;65.70;;;;;;5031392;28;20209;-82
2021/03/06 01:35:21;;;;;;;8.13;5.05;;;1.10;65.80;;;;;;5047048;28;20226;-81
2021/03/06 01:37:48;;;;;;;5.32;4.82;;;1.10;65.80;;;;;;5041241;28;20592;-81
2021/03/06 01:40:16;;;;;;;6.63;5.30;;;1.00;65.40;;;;;;5042181;28;20204;-82
2021/03/06 01:42:42;;;;;;;6.32;4.63;;;1.00;65.40;;;;;;5049007;28;20204;-81
2021/03/06 01:45:11;;;;;;;6.28;5.70;;;1.00;65.00;;;;;;5051988;28;20236;-81
2021/03/06 01:47:38;;;;;;;7.25;5.88;;;1.00;64.80;;;;;;5037521;28;20678;-81
2021/03/06 01:50:06;;;;;;;8.23;6.10;;;1.00;64.40;;;;;;5033185;28;20575;-81
2021/03/06 01:52:33;;;;;;;7.15;6.00;;;1.00;63.90;;;;;;5031102;28;20666;-81
2021/03/06 01:54:59;;;;;;;6.53;5.13;;;0.90;64.20;;;;;;5048372;28;20235;-81
2021/03/06 01:57:26;;;;;;;5.95;5.43;;;1.00;64.80;;;;;;5049277;28;20216;-81
2021/03/06 01:59:53;;;;;;;6.72;5.75;;;1.10;64.80;;;;;;5038432;28;20219;-81
2021/03/06 02:02:20;;;;;;;5.65;5.20;;;1.10;64.90;;;;;;5036036;28;20598;-81
2021/03/06 02:04:47;;;;;;;6.28;4.63;;;1.00;65.40;;;;;;5039672;28;20235;-81
2021/03/06 02:07:15;;;;;;;6.65;5.65;;;1.00;65.00;;;;;;5036687;28;20676;-82
2021/03/06 02:09:42;;;;;;;6.10;5.50;;;0.90;65.30;;;;;;5031321;28;20201;-82
2021/03/06 02:12:21;;;;;;;4.93;4.43;;;0.90;65.20;;;;;;5043682;28;20714;-81
2021/03/06 02:15:02;;;;;;;6.22;5.43;;;0.80;65.00;;;;;;5039662;28;20215;-81
2021/03/06 02:17:38;;;;;;;6.57;4.97;;;0.80;65.30;;;;;;5044488;28;20216;-81
2021/03/06 02:20:25;;;;;;;8.40;5.07;;;0.70;64.70;;;;;;5031010;28;20200;-81
2021/03/06 02:23:38;;;;;;;5.50;5.00;;;0.80;64.80;;;;;;5040971;28;20196;-81
2021/03/06 02:26:26;;;;;;;6.07;4.88;;;0.90;64.30;;;;;;4996024;28;20560;-81
2021/03/06 02:29:07;;;;;;;5.35;4.85;;;0.80;64.00;;;;;;5050878;28;20200;-81
2021/03/06 02:31:39;;;;;;;7.55;5.05;;;0.70;64.00;;;;;;5045798;28;20207;-81
2021/03/06 02:34:13;;;;;;;7.18;5.47;;;0.70;64.00;;;;;;5030496;28;20204;-81
2021/03/06 02:36:48;;;;;;;5.40;4.70;;;0.70;64.00;;;;;;5030553;28;20303;-81
2021/03/06 02:39:18;;;;;;;6.75;5.18;;;0.70;63.70;;;;;;5030593;28;20211;-81
2021/03/06 02:41:47;;;;;;;5.57;5.07;;;0.70;63.70;;;;;;5030331;28;20201;-81
2021/03/06 02:44:16;;;;;;;8.70;6.35;;;0.70;63.90;;;;;;5029831;28;20208;-81
2021/03/06 02:46:47;;;;;;;5.65;5.15;;;0.70;63.90;;;;;;5030379;28;20287;-80
2021/03/06 02:49:15;;;;;;;5.35;4.93;;;0.70;63.50;;;;;;5054286;28;20196;-81
2021/03/06 02:51:43;;;;;;;6.25;5.60;;;0.50;63.50;;;;;;5057428;28;20207;-80
2021/03/06 02:54:12;;;;;;;6.80;5.57;;;0.50;64.60;;;;;;5062915;28;20286;-81
2021/03/06 02:56:40;;;;;;;6.43;5.80;;;0.50;63.70;;;;;;5050808;28;20366;-82
2021/03/06 02:59:29;;;;;;;6.97;5.40;;;0.50;63.60;;;;;;5053485;28;20221;-81
2021/03/06 03:02:07;;;;;;;5.72;5.20;;;0.50;63.70;;;;;;5063589;28;20207;-82
2021/03/06 03:04:42;;;;;;;5.80;4.78;;;0.50;63.80;;;;;;5036793;28;20207;-81
2021/03/06 03:07:15;;;;;;;6.80;6.10;;;0.50;64.20;;;;;;5050300;28;20279;-81
2021/03/06 03:09:45;;;;;;;6.53;5.55;;;0.50;64.80;;;;;;5030649;28;20193;-81
2021/03/06 03:12:14;;;;;;;7.35;5.63;;;0.50;64.00;;;;;;5030477;28;20540;-81
2021/03/06 03:14:47;;;;;;;6.57;5.93;;;0.60;63.70;;;;;;5030353;28;20216;-81
2021/03/06 03:17:20;;;;;;;6.38;5.78;;;0.60;64.40;;;;;;5035189;28;20231;-81
2021/03/06 03:19:55;;;;;;;6.80;6.03;;;0.40;65.10;;;;;;5050333;28;20581;-81
2021/03/06 03:22:24;;;;;;;5.47;4.85;;;0.40;64.60;;;;;;5044729;28;20224;-81
2021/03/06 03:24:53;;;;;;;6.93;6.05;;;0.50;64.30;;;;;;5038592;28;20211;-81
2021/03/06 03:27:21;;;;;;;6.35;5.15;;;0.40;63.90;;;;;;5064412;28;20200;-81
2021/03/06 03:29:49;;;;;;;5.53;4.93;;;0.50;62.80;;;;;;5050071;28;20246;-82
2021/03/06 03:32:19;;;;;;;5.70;4.95;;;0.40;63.00;;;;;;5037097;28;20204;-81
2021/03/06 03:34:46;;;;;;;5.30;4.68;;;0.30;62.70;;;;;;5029804;28;20208;-81
2021/03/06 03:37:14;;;;;;;6.63;5.65;;;0.30;62.50;;;;;;5042069;28;20212;-81
2021/03/06 03:39:41;;;;;;;6.03;5.43;;;0.30;62.20;;;;;;5049966;28;20601;-81
2021/03/06 03:42:09;;;;;;;6.22;5.18;;;0.40;62.60;;;;;;5038440;28;20204;-81
2021/03/06 03:44:36;;;;;;;5.93;5.35;;;0.30;63.00;;;;;;5029578;28;20223;-81
2021/03/06 03:47:03;;;;;;;6.20;5.07;;;0.30;62.30;;;;;;5030233;28;20221;-81
2021/03/06 03:49:30;;;;;;;6.05;5.13;;;0.20;61.90;;;;;;5030103;28;20211;-81
2021/03/06 03:51:59;;;;;;;8.70;5.30;;;0.20;61.50;;;;;;5048553;28;20203;-81
2021/03/06 03:54:26;;;;;;;6.38;5.43;;;0.20;61.50;;;;;;5049544;28;20200;-81
2021/03/06 03:56:53;;;;;;;6.60;5.90;;;0.20;61.40;;;;;;5047546;28;21122;-81
2021/03/06 03:59:19;;;;;;;6.75;5.40;;;0.10;61.10;;;;;;5056526;28;20219;-81
2021/03/06 04:01:47;;;;;;;5.97;5.38;;;0.20;61.10;;;;;;5056044;28;20214;-81
2021/03/06 04:04:27;;;;;;;7.57;5.47;;;0.20;61.20;;;;;;5053323;28;20208;-80
2021/03/06 04:06:55;;;;;;;10.32;6.43;;;0.20;62.20;;;;;;5037332;28;20228;-80
2021/03/06 04:09:21;;;;;;;6.93;6.15;;;0.20;62.20;;;;;;5033951;28;20259;-81
2021/03/06 04:11:48;;;;;;;8.10;5.25;;;0.20;62.20;;;;;;5049034;28;20207;-81
2021/03/06 04:14:15;;;;;;;5.50;5.03;;;0.30;62.30;;;;;;5053343;28;20212;-81
2021/03/06 04:16:41;;;;;;;6.93;5.68;;;0.10;62.20;;;;;;5040122;28;20267;-81
2021/03/06 04:19:08;;;;;;;8.00;6.07;;;0.10;62.60;;;;;;5034141;28;20204;-81
2021/03/06 04:21:34;;;;;;;6.25;5.65;;;0.00;62.40;;;;;;5049819;28;20208;-81
2021/03/06 04:24:02;;;;;;;8.52;6.65;;;0.00;62.60;;;;;;5052260;28;20545;-81
2021/03/06 04:26:28;;;;;;;7.47;5.60;;;-0.10;63.90;;;;;;5038898;28;20251;-81
2021/03/06 04:28:55;;;;;;;7.60;6.35;;;-0.10;63.90;;;;;;5051725;28;20204;-81
2021/03/06 04:31:21;;;;;;;6.78;6.18;;;-0.10;64.70;;;;;;5035889;28;20201;-81
2021/03/06 04:33:48;;;;;;;7.25;6.00;;;-0.20;65.10;;;;;;5033693;28;20247;-81
2021/03/06 04:36:15;;;;;;;6.28;5.70;;;-0.10;65.20;;;;;;5049169;28;20247;-81
2021/03/06 04:38:43;;;;;;;6.38;5.72;;;0.00;63.90;;;;;;5053909;28;20200;-81
2021/03/06 04:41:11;;;;;;;6.78;6.18;;;0.00;63.70;;;;;;5038098;28;20216;-81
2021/03/06 04:43:38;;;;;;;5.90;5.35;;;-0.10;64.20;;;;;;5034387;28;20188;-81
2021/03/06 04:46:06;;;;;;;6.57;5.82;;;-0.20;64.10;;;;;;5034198;28;20196;-81
2021/03/06 04:48:35;;;;;;;6.70;5.95;;;-0.10;65.20;;;;;;5033854;28;20557;-81
2021/03/06 04:51:02;;;;;;;7.03;5.93;;;-0.20;66.40;;;;;;5034482;28;20204;-81
2021/03/06 04:53:29;;;;;;;6.32;5.60;;;-0.20;67.40;;;;;;5040982;28;20279;-81
2021/03/06 04:55:56;;;;;;;6.35;5.63;;;-0.40;67.70;;;;;;5053423;28;20245;-81
2021/03/06 04:58:24;;;;;;;6.28;5.68;;;-0.40;67.90;;;;;;5043110;28;20185;-81
2021/03/06 05:00:51;;;;;;;7.03;6.32;;;-0.50;68.30;;;;;;5051718;28;20591;-80
2021/03/06 05:03:18;;;;;;;7.28;6.53;;;-0.60;68.60;;;;;;5049959;28;20675;-81
2021/03/06 05:05:45;;;;;;;8.02;6.32;;;-0.70;68.70;;;;;;5043447;28;20343;-80
2021/03/06 05:08:12;;;;;;;5.72;5.22;;;-0.60;69.00;;;;;;5039152;28;20192;-81
2021/03/06 05:10:39;;;;;;;7.03;6.32;;;-0.50;69.20;;;;;;5050871;28;20200;-80
2021/03/06 05:13:05;;;;;;;5.90;5.30;;;-0.50;69.10;;;;;;5035144;28;20478;-80
2021/03/06 05:15:33;;;;;;;6.40;5.72;;;-0.70;68.70;;;;;;5040106;28;20196;-80
2021/03/06 05:17:59;;;;;;;7.20;5.70;;;-0.80;68.90;;;;;;5052499;28;20234;-80
2021/03/06 05:20:26;;;;;;;9.65;6.43;;;-1.00;69.30;;;;;;5043287;28;20229;-81
2021/03/06 05:22:52;;;;;;;6.78;6.07;;;-1.00;69.70;;;;;;5032421;28;20216;-80
2021/03/06 05:25:18;;;;;;;9.00;5.82;;;-0.90;70.70;;;;;;5036260;28;20200;-80
2021/03/06 05:27:45;;;;;;;8.00;5.90;;;-0.90;70.50;;;;;;5035832;28;20201;-80
2021/03/06 05:30:12;;;;;;;6.43;5.72;;;-0.80;70.70;;;;;;5046063;28;20205;-80
2021/03/06 05:32:39;;;;;;;7.18;5.35;;;-0.80;70.10;;;;;;5046111;28;20197;-80
2021/03/06 05:35:06;;;;;;;6.20;5.60;;;-0.80;69.00;;;;;;5032814;28;20220;-80
2021/03/06 05:37:33;;;;;;;6.43;5.82;;;-0.90;67.90;;;;;;5036710;28;20204;-81
2021/03/06 05:39:59;;;;;;;6.60;6.00;;;-0.90;68.10;;;;;;5049470;28;20666;-80
2021/03/06 05:42:27;;;;;;;7.03;5.97;;;-1.00;68.00;;;;;;5037000;28;20200;-81
2021/03/06 05:44:54;;;;;;;8.77;5.93;;;-0.90;68.80;;;;;;5051210;28;20204;-80
2021/03/06 05:47:22;;;;;;;7.40;6.35;;;-0.90;68.70;;;;;;5033354;28;20679;-80
2021/03/06 05:49:49;;;;;;;6.93;6.28;;;-0.90;68.40;;;;;;5033351;28;20224;-80
2021/03/06 05:52:18;;;;;;;6.65;5.95;;;-0.80;69.00;;;;;;5032089;28;20288;-80
2021/03/06 05:54:48;;;;;;;6.65;6.00;;;-0.90;69.30;;;;;;5035359;28;21043;-80
2021/03/06 05:57:15;;;;;;;5.60;5.10;;;-0.80;68.80;;;;;;5050238;28;20226;-80
2021/03/06 05:59:41;;;;;;;6.72;6.00;;;-0.80;68.60;;;;;;5061127;28;20226;-80
2021/03/06 06:02:08;;;;;;;10.82;6.47;;;-0.80;68.40;;;;;;5041916;28;20654;-80
2021/03/06 06:04:36;;;;;;;8.25;5.95;;;-0.80;69.50;;;;;;5031481;28;20689;-81
2021/03/06 06:07:04;;;;;;;6.78;6.00;;;-0.90;68.70;;;;;;5031646;28;20200;-82
2021/03/06 06:09:30;;;;;;;6.80;5.65;;;-0.90;68.30;;;;;;5031593;28;20613;-82
2021/03/06 06:11:57;;;;;;;8.00;6.40;;;-0.70;67.60;;;;;;5048839;28;20200;-82
2021/03/06 06:14:23;;;;;;;8.02;5.50;;;-0.80;67.30;;;;;;5031535;28;20211;-83
2021/03/06 06:16:50;;;;;;;7.25;5.75;;;-0.60;66.90;;;;;;5046873;28;20601;-82
2021/03/06 06:19:17;;;;;;;6.85;5.43;;;-0.60;66.60;;;;;;5051080;28;20657;-82
2021/03/06 06:21:45;;;;;;;11.80;5.40;;;-0.70;67.90;;;;;;5050252;28;20227;-82
2021/03/06 06:24:13;;;;;;;6.13;5.50;;;-0.80;68.10;;;;;;5050471;28;20215;-81
2021/03/06 06:26:40;;;;;;;6.45;5.43;;;-1.00;68.90;;;;;;5034458;28;20200;-82
2021/03/06 06:29:07;;;;;;;9.23;7.45;;;-0.90;69.90;;;;;;5029934;28;20807;-81
2021/03/06 06:31:34;;;;;;;6.88;5.70;;;-0.90;70.50;;;;;;5044629;28;20697;-82
2021/03/06 06:34:11;;;;;;;8.45;5.53;;;-0.70;70.90;;;;;;5034681;28;20270;-82
2021/03/06 06:36:39;;;;;;;7.70;6.40;;;-0.60;69.20;;;;;;5046385;28;20220;-82
2021/03/06 06:39:06;;;;;;;6.60;5.90;;;-0.50;67.80;;;;;;5030461;28;20573;-83
2021/03/06 06:41:56;;;;;;;8.57;6.03;;;-0.30;66.50;;;;;;5033492;28;20208;-82
2021/03/06 06:44:23;;;;;;;6.95;5.25;;;-0.30;66.20;;;;;;5046465;28;20247;-82
2021/03/06 06:46:51;;;;;;;5.90;5.30;;;-0.20;65.50;;;;;;5046671;28;20262;-83
2021/03/06 06:49:17;;;;;;;6.65;5.18;;;-0.10;65.10;;;;;;5045793;28;20208;-83
2021/03/06 06:51:57;;;;;;;8.13;5.65;;;0.00;64.50;;;;;;5034515;28;20655;-82
2021/03/06 06:54:24;;;;;;;7.35;5.32;;;0.10;64.00;;;;;;5030944;28;20731;-82
2021/03/06 06:56:50;;;;;;;7.07;6.07;;;0.10;64.60;;;;;;5050670;28;20826;-82
2021/03/06 06:59:18;;;;;;;6.30;5.32;;;0.10;64.20;;;;;;5058609;28;20207;-83
2021/03/06 07:01:45;;;;;;;7.15;5.93;;;0.20;64.40;;;;;;5047650;28;20221;-83
2021/03/06 07:04:12;;;;;;;7.20;6.15;;;0.30;63.90;;;;;;5050591;28;20693;-82
2021/03/06 07:06:38;;;;;;;7.15;5.18;;;0.40;63.90;;;;;;5034830;28;20662;-83
2021/03/06 07:09:07;;;;;;;8.35;5.68;;;0.40;63.90;;;;;;5030895;28;20208;-82
2021/03/06 07:11:33;;;;;;;7.15;6.45;;;0.60;64.40;;;;;;5043638;28;20250;-83
2021/03/06 07:14:00;;;;;;;6.28;5.50;;;0.70;64.40;;;;;;5042921;28;20201;-84
2021/03/06 07:16:56;;;;;;;6.72;5.97;;;0.80;66.40;;;;;;5049364;28;20632;-82
2021/03/06 07:19:24;;;;;;;8.15;6.07;;;1.00;66.60;;;;;;5033039;28;20282;-82
2021/03/06 07:21:50;;;;;;;7.40;6.60;;;1.10;65.80;;;;;;5032641;28;20738;-82
2021/03/06 07:24:17;;;;;;;7.93;6.93;;;1.40;66.10;;;;;;5030269;28;20213;-82
2021/03/06 07:26:44;;;;;;;7.43;6.22;;;1.50;64.20;;;;;;5045615;28;20218;-82
2021/03/06 07:29:10;;;;;;;8.30;7.45;;;1.50;63.70;;;;;;5037859;28;20214;-82
2021/03/06 07:31:39;;;;;;;6.35;5.75;;;1.70;64.60;;;;;;5047235;28;20208;-82
2021/03/06 07:34:09;;;;;;;11.70;7.13;;;1.80;64.40;;;;;;5039061;28;20212;-83
2021/03/06 07:36:38;;;;;;;9.23;6.40;;;2.00;64.00;;;;;;5030201;28;20217;-83
2021/03/06 07:39:06;;;;;;;6.70;5.97;;;1.90;62.70;;;;;;5029594;28;20207;-81
2021/03/06 07:41:39;;;;;;;7.00;5.85;;;1.90;62.70;;;;;;5031471;28;20200;-83
2021/03/06 07:44:07;;;;;;;10.18;6.30;;;2.00;63.40;;;;;;5047652;28;20211;-83
2021/03/06 07:46:38;;;;;;;7.22;6.47;;;2.10;63.70;;;;;;5049808;28;20196;-84
2021/03/06 07:49:10;;;;;;;8.13;6.25;;;2.20;63.80;;;;;;5046303;28;20299;-84
2021/03/06 07:51:40;;;;;;;7.47;6.70;;;2.30;63.00;;;;;;5032799;28;20312;-83
2021/03/06 07:54:07;;;;;;;8.10;7.18;;;2.30;63.30;;;;;;5042602;28;20596;-84
2021/03/06 07:56:37;;;;;;;11.07;6.35;;;2.30;62.90;;;;;;5031817;28;20203;-84
2021/03/06 07:59:03;;;;;;;8.35;6.72;;;2.20;62.90;;;;;;5052944;28;20207;-84
2021/03/06 08:01:31;;;;;;;9.18;6.78;;;2.30;63.00;;;;;;5048331;28;20188;-83
2021/03/06 08:03:59;;;;;;;11.70;6.57;;;2.40;62.00;;;;;;5047825;28;20666;-83
2021/03/06 08:06:27;;;;;;;7.68;6.93;;;2.60;62.40;;;;;;5030131;28;20685;-83
2021/03/06 08:09:15;;;;;;;7.88;5.57;;;2.60;61.80;;;;;;5049556;28;20200;-84
2021/03/06 08:11:47;;;;;;;9.23;6.22;;;2.70;61.90;;;;;;5030320;28;20199;-83
2021/03/06 08:14:34;;;;;;;7.85;6.00;;;2.80;61.00;;;;;;5029428;28;20209;-83
2021/03/06 08:17:01;;;;;;;8.93;6.65;;;2.90;61.30;;;;;;5031328;28;20239;-83
2021/03/06 08:19:32;;;;;;;8.23;6.65;;;3.20;62.60;;;;;;5030058;28;20200;-83
2021/03/06 08:22:16;;;;;;;9.30;7.03;;;3.10;61.80;;;;;;5030052;28;20216;-84
2021/03/06 08:24:43;;;;;;;7.15;6.43;;;3.30;61.20;;;;;;5033489;28;20206;-85
2021/03/06 08:27:22;;;;;;;8.07;7.28;;;3.30;61.20;;;;;;5029919;28;20208;-84
2021/03/06 08:29:51;;;;;;;6.32;5.70;;;3.30;59.80;;;;;;5048560;28;20824;-84
2021/03/06 08:32:33;;;;;;;7.47;6.65;;;3.50;60.90;;;;;;5033960;28;20209;-84
2021/03/06 08:35:17;;;;;;;8.63;6.43;;;3.60;60.20;;;;;;5041581;28;20215;-85
2021/03/06 08:37:44;;;;;;;8.10;7.30;;;3.80;61.00;;;;;;5041406;28;20894;-84
2021/03/06 08:40:16;;;;;;;10.18;7.68;;;3.70;59.50;;;;;;5034398;28;20595;-84
2021/03/06 08:42:45;;;;;;;12.25;7.05;;;3.80;59.40;;;;;;5038190;28;20547;-85
2021/03/06 08:45:15;;;;;;;8.00;7.20;;;3.80;59.30;;;;;;5038976;28;20735;-85
2021/03/06 08:47:44;;;;;;;7.53;6.72;;;3.80;59.30;;;;;;5037847;28;20201;-85
2021/03/06 08:50:14;;;;;;;8.48;6.30;;;3.90;58.80;;;;;;5041589;28;20817;-86
2021/03/06 08:52:42;;;;;;;8.85;6.70;;;4.00;58.60;;;;;;5053385;28;20463;-86
2021/03/06 08:55:10;;;;;;;7.63;6.43;;;4.00;58.60;;;;;;5052162;28;20254;-85
2021/03/06 08:57:38;;;;;;;8.00;6.38;;;4.00;58.20;;;;;;5053601;28;20601;-86
2021/03/06 09:00:16;;;;;;;9.50;6.40;;;4.00;57.10;;;;;;5054083;28;20199;-85
2021/03/06 09:02:43;;;;;;;6.95;6.15;;;4.10;57.20;;;;;;5069665;28;20207;-85
2021/03/06 09:05:12;;;;;;;8.10;6.25;;;4.00;57.30;;;;;;5061735;28;20203;-86
2021/03/06 09:07:40;;;;;;;6.00;5.40;;;4.10;57.00;;;;;;5073751;28;20603;-85
2021/03/06 09:10:30;;;;;;;13.70;6.30;;;4.20;56.20;;;;;;5061964;28;20537;-86
2021/03/06 09:12:59;;;;;;;8.23;5.85;;;4.30;57.50;;;;;;5050030;28;20229;-86
2021/03/06 09:15:44;;;;;;;7.20;5.40;;;4.30;56.50;;;;;;5062777;28;20196;-87
2021/03/06 09:18:12;;;;;;;11.40;6.45;;;4.50;57.10;;;;;;5045330;28;20259;-86
2021/03/06 09:20:50;;;;;;;8.23;5.82;;;4.50;56.00;;;;;;5043059;28;20199;-87
2021/03/06 09:23:28;;;;;;;8.30;5.38;;;4.50;56.00;;;;;;5043401;28;20195;-86
2021/03/06 09:25:55;;;;;;;5.30;4.85;;;4.50;55.70;;;;;;5062519;28;20210;-86
2021/03/06 09:28:27;;;;;;;6.57;5.95;;;4.50;55.40;;;;;;5050256;28;20200;-86
2021/03/06 09:30:54;;;;;;;7.25;5.72;;;4.60;55.50;;;;;;5034953;28;20212;-86
2021/03/06 09:33:29;;;;;;;6.18;5.60;;;4.80;55.90;;;;;;5044579;28;20262;-86
2021/03/06 09:36:02;;;;;;;6.97;5.40;;;4.80;55.70;;;;;;5033517;28;20204;-86
2021/03/06 09:38:28;;;;;;;5.88;4.88;;;4.80;55.50;;;;;;5045472;28;20224;-86
2021/03/06 09:40:56;;;;;;;5.00;4.50;;;4.90;54.70;;;;;;5052039;28;20200;-85
2021/03/06 09:43:31;;;;;;;8.65;6.53;;;4.90;54.10;;;;;;5051309;28;20346;-86
2021/03/06 09:46:12;;;;;;;8.63;5.10;;;4.90;54.30;;;;;;5036884;28;20204;-85
2021/03/06 09:48:47;;;;;;;5.28;4.78;;;4.90;53.50;;;;;;5046310;28;20192;-86
2021/03/06 09:51:15;;;;;;;5.68;4.65;;;5.00;54.20;;;;;;5038700;28;20281;-86
2021/03/06 09:53:41;;;;;;;6.82;6.13;;;4.90;53.80;;;;;;5046164;28;20207;-86
2021/03/06 09:56:12;;;;;;;6.43;5.28;;;4.90;53.40;;;;;;5037356;28;20205;-87
2021/03/06 09:58:40;;;;;;;5.55;5.00;;;4.90;53.60;;;;;;5053362;28;20870;-87
2021/03/06 10:01:16;;;;;;;5.13;4.70;;;4.80;53.60;;;;;;5051132;28;20193;-86
2021/03/06 10:03:43;;;;;;;6.63;6.00;;;5.00;54.30;;;;;;5036551;28;20215;-87
2021/03/06 10:06:11;;;;;;;8.43;5.18;;;5.10;53.50;;;;;;5052861;28;20199;-87
2021/03/06 10:08:45;;;;;;;8.38;5.82;;;5.30;53.60;;;;;;5039824;28;20201;-87
2021/03/06 10:11:13;;;;;;;7.70;6.30;;;5.20;53.20;;;;;;5043158;28;20207;-86
2021/03/06 10:13:42;;;;;;;6.00;5.40;;;5.10;53.40;;;;;;5053615;28;20202;-86
2021/03/06 10:16:11;;;;;;;6.25;5.63;;;5.10;53.00;;;;;;5049083;28;20196;-87
2021/03/06 10:18:39;;;;;;;8.00;4.85;;;5.10;52.00;;;;;;5053281;28;20231;-86
2021/03/06 10:21:15;;;;;;;6.63;5.97;;;5.20;52.90;;;;;;5059927;28;20195;-86
2021/03/06 10:23:47;;;;;;;6.65;5.47;;;5.10;52.00;;;;;;5057717;28;20204;-86
2021/03/06 10:26:21;;;;;;;5.88;5.28;;;5.10;52.50;;;;;;5055964;28;20265;-86
2021/03/06 10:28:52;;;;;;;5.55;5.00;;;5.30;52.80;;;;;;5063355;28;20535;-85
2021/03/06 10:31:31;;;;;;;5.53;4.95;;;5.30;51.10;;;;;;5059515;28;20192;-87
2021/03/06 10:33:58;;;;;;;10.23;5.85;;;5.20;51.90;;;;;;5046459;28;20199;-86
2021/03/06 10:36:25;;;;;;;5.22;4.72;;;5.20;52.10;;;;;;5068185;28;20196;-86
2021/03/06 10:39:17;;;;;;;5.45;4.90;;;5.20;50.90;;;;;;5054888;28;20229;-86
2021/03/06 10:41:45;;;;;;;12.73;5.13;;;5.20;51.00;;;;;;5061378;28;20200;-87
2021/03/06 10:44:11;;;;;;;5.45;4.57;;;5.30;50.00;;;;;;5067138;28;20195;-88
2021/03/06 10:46:38;;;;;;;5.10;4.68;;;5.30;50.30;;;;;;5065981;28;20608;-87
2021/03/06 10:49:06;;;;;;;6.53;4.95;;;5.40;51.10;;;;;;5056118;28;20212;-87
2021/03/06 10:51:49;;;;;;;5.78;5.20;;;5.50;51.20;;;;;;5063810;28;20196;-88
2021/03/06 10:54:18;;;;;;;5.72;4.95;;;5.60;50.40;;;;;;5041268;28;20196;-87
2021/03/06 10:56:45;;;;;;;6.68;4.95;;;5.70;50.10;;;;;;5064762;28;20211;-88
2021/03/06 10:59:12;;;;;;;5.88;5.30;;;5.90;51.00;;;;;;5064111;28;20196;-88
2021/03/06 11:01:46;;;;;;;6.30;5.53;;;5.90;50.40;;;;;;5070824;28;20284;-88
2021/03/06 11:04:25;;;;;;;4.90;4.50;;;6.00;50.40;;;;;;5056007;28;20286;-88
2021/03/06 11:07:01;;;;;;;5.95;5.38;;;5.80;49.40;;;;;;5050952;28;20196;-87
2021/03/06 11:09:31;;;;;;;6.50;5.10;;;5.90;50.30;;;;;;5053781;28;20198;-88
2021/03/06 11:12:17;;;;;;;6.10;5.60;;;5.90;49.80;;;;;;5052876;28;20208;-87
2021/03/06 11:14:44;;;;;;;6.53;5.85;;;6.10;50.60;;;;;;5062188;28;20230;-87
2021/03/06 11:17:15;;;;;;;5.70;5.13;;;6.10;50.70;;;;;;5065423;28;20234;-88
2021/03/06 11:19:43;;;;;;;5.55;5.05;;;6.00;50.10;;;;;;5059761;28;20560;-87
2021/03/06 11:22:10;;;;;;;4.70;4.22;;;5.90;48.90;;;;;;5071452;28;20298;-88
2021/03/06 11:24:38;;;;;;;5.63;5.13;;;6.00;49.30;;;;;;5053012;28;20290;-87
2021/03/06 11:27:05;;;;;;;5.80;4.60;;;6.00;48.90;;;;;;5045051;28;20204;-87
2021/03/06 11:29:32;;;;;;;5.50;4.47;;;6.10;49.10;;;;;;5049090;28;20550;-89
2021/03/06 11:31:58;;;;;;;4.88;4.45;;;6.20;48.30;;;;;;5052301;28;20327;-88
2021/03/06 11:34:25;;;;;;;4.97;4.57;;;6.20;47.60;;;;;;5058947;28;20245;-88
2021/03/06 11:36:52;;;;;;;5.70;5.20;;;6.30;47.30;;;;;;5049125;28;20200;-87
2021/03/06 11:39:19;;;;;;;4.95;4.53;;;6.40;47.90;;;;;;5039304;28;20195;-88
2021/03/06 11:41:46;;;;;;;5.60;5.10;;;6.30;48.60;;;;;;5041623;28;20214;-87
2021/03/06 11:44:13;;;;;;;5.47;4.72;;;6.50;48.30;;;;;;5030198;28;20204;-87
2021/03/06 11:46:40;;;;;;;5.40;4.50;;;6.60;48.00;;;;;;5036014;28;20646;-87
2021/03/06 11:49:07;;;;;;;5.63;5.13;;;6.50;47.90;;;;;;5059662;28;20225;-87
2021/03/06 11:51:34;;;;;;;4.25;3.85;;;6.50;46.30;;;;;;5066288;28;20206;-88
2021/03/06 11:54:01;;;;;;;4.65;4.15;;;6.50;45.80;;;;;;5050064;28;20912;-87
2021/03/06 11:56:28;;;;;;;4.75;4.35;;;6.40;45.20;;;;;;5050128;28;20211;-86
2021/03/06 11:58:55;;;;;;;5.35;4.00;;;6.60;45.40;;;;;;5039412;28;20269;-87
2021/03/06 12:01:22;;;;;;;5.15;4.65;;;6.60;46.50;;;;;;5055231;28;20200;-87
2021/03/06 12:03:48;;;;;;;5.10;4.60;;;6.80;46.50;;;;;;5035811;28;20212;-87
2021/03/06 12:06:15;;;;;;;5.63;4.40;;;6.80;46.20;;;;;;5043249;28;20689;-87
2021/03/06 12:08:41;;;;;;;4.20;3.63;;;6.80;45.90;;;;;;5049068;28;20200;-87
2021/03/06 12:11:08;;;;;;;4.65;4.05;;;6.60;43.70;;;;;;5048794;28;20210;-88
2021/03/06 12:13:34;;;;;;;4.20;3.80;;;6.60;44.60;;;;;;5048029;28;20625;-87
2021/03/06 12:16:02;;;;;;;4.32;3.25;;;6.80;44.00;;;;;;5037822;28;20224;-87
2021/03/06 12:18:28;;;;;;;4.68;3.92;;;6.80;43.00;;;;;;5030466;28;20220;-87
2021/03/06 12:20:55;;;;;;;3.33;3.03;;;6.70;42.10;;;;;;5050731;28;20202;-87
2021/03/06 12:23:21;;;;;;;5.82;4.45;;;6.60;42.50;;;;;;5053745;28;20215;-87
2021/03/06 12:25:48;;;;;;;4.85;4.45;;;6.80;42.90;;;;;;5035677;28;20201;-87
2021/03/06 12:28:14;;;;;;;5.10;4.60;;;6.80;45.80;;;;;;5049596;28;20195;-88
2021/03/06 12:30:41;;;;;;;6.20;5.07;;;7.00;45.90;;;;;;5054131;28;20199;-88
2021/03/06 12:33:08;;;;;;;4.72;4.32;;;7.00;46.50;;;;;;5052195;28;20200;-87
2021/03/06 12:35:34;;;;;;;6.10;5.60;;;7.00;45.90;;;;;;5053784;28;20216;-88
2021/03/06 12:38:01;;;;;;;4.78;4.25;;;7.00;45.10;;;;;;5041014;28;20591;-87
2021/03/06 12:40:27;;;;;;;5.25;4.75;;;6.90;45.10;;;;;;5044974;28;20270;-87
2021/03/06 12:42:54;;;;;;;6.80;4.60;;;6.80;45.60;;;;;;5033844;28;20224;-87
2021/03/06 12:45:20;;;;;;;5.18;4.60;;;6.90;45.80;;;;;;5037453;28;20192;-87
2021/03/06 12:47:47;;;;;;;5.45;4.55;;;7.00;45.90;;;;;;5034279;28;20201;-87
2021/03/06 12:50:15;;;;;;;4.82;4.40;;;6.90;45.30;;;;;;5050349;28;20280;-88
2021/03/06 12:52:41;;;;;;;4.72;4.28;;;6.90;46.10;;;;;;5038981;28;20200;-87
2021/03/06 12:55:09;;;;;;;5.85;5.35;;;6.90;45.50;;;;;;5034034;28;20688;-88
2021/03/06 12:57:36;;;;;;;5.65;5.15;;;6.90;45.50;;;;;;5045662;28;20681;-87
2021/03/06 13:00:03;;;;;;;5.97;5.28;;;7.10;45.50;;;;;;5063787;28;20210;-86
2021/03/06 13:02:30;;;;;;;7.85;4.80;;;6.90;45.50;;;;;;5060268;28;20616;-87
2021/03/06 13:05:26;;;;;;;5.88;4.90;;;6.80;46.80;;;;;;5051106;28;20214;-87
2021/03/06 13:07:55;;;;;;;6.03;5.40;;;6.90;45.50;;;;;;5040317;28;20654;-87